createdAt,value
2022-11-25T00:00:33.990Z,95498
2022-11-25T00:01:43.745Z,95499
2022-11-25T00:02:51.528Z,95498
2022-11-25T00:04:00.054Z,95497
2022-11-25T00:05:09.744Z,95501
2022-11-25T00:06:17.433Z,95504
2022-11-25T00:07:27.150Z,95504
2022-11-25T00:08:36.798Z,95503
2022-11-25T00:09:45.710Z,95504
2022-11-25T00:10:55.318Z,95509
2022-11-25T00:12:03.989Z,95503
2022-11-25T00:13:11.677Z,95509
2022-11-25T00:14:21.354Z,95504
2022-11-25T00:15:31.154Z,95506
2022-11-25T00:16:45.111Z,95515
2022-11-25T00:17:51.531Z,95514
2022-11-25T00:19:00.224Z,95516
2022-11-25T00:20:09.935Z,95519
2022-11-25T00:21:19.622Z,95519
2022-11-25T00:22:29.326Z,95517
2022-11-25T00:23:38.967Z,95513
2022-11-25T00:24:47.653Z,95507
2022-11-25T00:25:57.378Z,95509
2022-11-25T00:27:06.083Z,95510
2022-11-25T00:28:14.784Z,95508
2022-11-25T00:29:24.472Z,95501
2022-11-25T00:30:32.141Z,95504
2022-11-25T00:31:40.929Z,95508
2022-11-25T00:32:50.683Z,95508
2022-11-25T00:33:59.349Z,95506
2022-11-25T00:35:08.030Z,95506
2022-11-25T00:36:16.718Z,95504
2022-11-25T00:37:25.364Z,95507
2022-11-25T00:38:34.085Z,95501
2022-11-25T00:39:43.753Z,95506
2022-11-25T00:40:53.476Z,95500
2022-11-25T00:42:03.073Z,95510
2022-11-25T00:43:11.832Z,95505
2022-11-25T00:44:21.528Z,95503
2022-11-25T00:45:31.260Z,95502
2022-11-25T00:46:39.890Z,95505
2022-11-25T00:47:48.557Z,95506
2022-11-25T00:48:57.253Z,95504
2022-11-25T00:50:06.957Z,95508
2022-11-25T00:51:14.644Z,95510
2022-11-25T00:52:24.319Z,95509
2022-11-25T00:53:33.982Z,95512
2022-11-25T00:54:42.688Z,95508
2022-11-25T00:56:10.244Z,95509
2022-11-25T00:57:17.960Z,95509
2022-11-25T00:58:27.640Z,95512
2022-11-25T00:59:37.333Z,95512
2022-11-25T01:00:46.031Z,95512
2022-11-25T01:01:54.738Z,95507
2022-11-25T01:03:04.355Z,95508
2022-11-25T01:04:13.074Z,95506
2022-11-25T01:05:22.725Z,95502
2022-11-25T01:06:31.424Z,95503
2022-11-25T01:07:40.165Z,95503
2022-11-25T01:08:49.814Z,95503
2022-11-25T01:09:57.662Z,95508
2022-11-25T01:11:07.307Z,95505
2022-11-25T01:12:15.997Z,95506
2022-11-25T01:13:24.678Z,95502
2022-11-25T01:14:34.784Z,95504
2022-11-25T01:15:43.021Z,95502
2022-11-25T01:16:51.676Z,95503
2022-11-25T01:18:01.343Z,95497
2022-11-25T01:19:09.002Z,95498
2022-11-25T01:20:17.676Z,95499
2022-11-25T01:21:26.338Z,95497
2022-11-25T01:22:34.992Z,95495
2022-11-25T01:23:44.735Z,95495
2022-11-25T01:24:53.391Z,95491
2022-11-25T01:26:03.187Z,95487
2022-11-25T01:27:12.833Z,95486
2022-11-25T01:28:20.483Z,95480
2022-11-25T01:29:29.187Z,95477
2022-11-25T01:30:41.133Z,95476
2022-11-25T01:31:47.547Z,95479
2022-11-25T01:32:57.201Z,95477
2022-11-25T01:34:04.857Z,95483
2022-11-25T01:35:13.566Z,95490
2022-11-25T01:36:23.238Z,95486
2022-11-25T01:37:31.913Z,95484
2022-11-25T01:38:40.601Z,95488
2022-11-25T01:39:49.282Z,95486
2022-11-25T01:40:58.036Z,95485
2022-11-25T01:42:07.763Z,95489
2022-11-25T01:43:17.404Z,95490
2022-11-25T01:44:26.064Z,95492
2022-11-25T01:45:35.828Z,95491
2022-11-25T01:46:42.458Z,95492
2022-11-25T01:47:52.208Z,95494
2022-11-25T01:49:00.749Z,95493
2022-11-25T01:50:09.408Z,95488
2022-11-25T01:51:19.062Z,95492
2022-11-25T01:52:27.762Z,95495
2022-11-25T01:53:36.402Z,95491
2022-11-25T01:54:46.160Z,95490
2022-11-25T01:55:56.824Z,95490
2022-11-25T01:57:05.485Z,95488
2022-11-25T01:58:14.206Z,95488
2022-11-25T01:59:23.861Z,95489
2022-11-25T02:00:33.584Z,95487
2022-11-25T02:01:41.395Z,95485
2022-11-25T02:02:50.013Z,95482
2022-11-25T02:03:59.704Z,95485
2022-11-25T02:05:08.376Z,95485
2022-11-25T02:06:17.127Z,95482
2022-11-25T02:07:26.753Z,95491
2022-11-25T02:08:36.440Z,95489
2022-11-25T02:09:46.144Z,95488
2022-11-25T02:10:54.814Z,95487
2022-11-25T02:12:03.457Z,95484
2022-11-25T02:13:12.134Z,95482
2022-11-25T02:14:19.828Z,95485
2022-11-25T02:15:28.486Z,95485
2022-11-25T02:16:37.243Z,95483
2022-11-25T02:17:45.819Z,95485
2022-11-25T02:18:56.487Z,95481
2022-11-25T02:20:05.184Z,95480
2022-11-25T02:21:13.832Z,95482
2022-11-25T02:22:23.519Z,95482
2022-11-25T02:23:32.169Z,95482
2022-11-25T02:24:40.838Z,95482
2022-11-25T02:25:49.494Z,95478
2022-11-25T02:26:59.279Z,95474
2022-11-25T02:28:08.986Z,95472
2022-11-25T02:29:16.641Z,95475
2022-11-25T02:30:26.344Z,95468
2022-11-25T02:31:36.020Z,95473
2022-11-25T02:32:43.666Z,95476
2022-11-25T02:33:52.356Z,95475
2022-11-25T02:35:01.008Z,95481
2022-11-25T02:36:09.700Z,95477
2022-11-25T02:37:19.377Z,95478
2022-11-25T02:38:28.087Z,95474
2022-11-25T02:39:37.749Z,95478
2022-11-25T02:40:46.417Z,95473
2022-11-25T02:41:55.067Z,95480
2022-11-25T02:43:04.740Z,95475
2022-11-25T02:44:12.440Z,95478
2022-11-25T02:45:20.113Z,95473
2022-11-25T02:46:28.865Z,95478
2022-11-25T02:47:37.439Z,95478
2022-11-25T02:49:07.708Z,95478
2022-11-25T02:49:56.762Z,95479
2022-11-25T02:51:05.415Z,95480
2022-11-25T02:52:15.123Z,95480
2022-11-25T02:53:23.794Z,95480
2022-11-25T02:54:32.461Z,95476
2022-11-25T02:55:41.162Z,95480
2022-11-25T02:56:49.835Z,95482
2022-11-25T02:57:59.555Z,95482
2022-11-25T02:59:08.238Z,95481
2022-11-25T03:00:17.917Z,95478
2022-11-25T03:01:27.629Z,95483
2022-11-25T03:02:36.350Z,95479
2022-11-25T03:03:44.967Z,95477
2022-11-25T03:04:54.639Z,95483
2022-11-25T03:06:03.326Z,95482
2022-11-25T03:07:13.054Z,95484
2022-11-25T03:08:21.697Z,95481
2022-11-25T03:09:30.361Z,95484
2022-11-25T03:10:39.033Z,95482
2022-11-25T03:11:47.695Z,95490
2022-11-25T03:12:57.389Z,95486
2022-11-25T03:14:06.078Z,95486
2022-11-25T03:15:14.755Z,95487
2022-11-25T03:16:24.485Z,95482
2022-11-25T03:17:33.119Z,95478
2022-11-25T03:18:42.935Z,95481
2022-11-25T03:19:52.600Z,95476
2022-11-25T03:21:00.267Z,95474
2022-11-25T03:22:08.939Z,95474
2022-11-25T03:23:17.622Z,95477
2022-11-25T03:24:27.292Z,95476
2022-11-25T03:25:36.961Z,95476
2022-11-25T03:26:45.627Z,95477
2022-11-25T03:27:54.281Z,95478
2022-11-25T03:29:02.960Z,95478
2022-11-25T03:30:12.649Z,95480
2022-11-25T03:31:22.431Z,95477
2022-11-25T03:32:31.099Z,95478
2022-11-25T03:33:39.762Z,95479
2022-11-25T03:34:49.458Z,95477
2022-11-25T03:35:59.135Z,95478
2022-11-25T03:37:07.796Z,95474
2022-11-25T03:38:17.479Z,95470
2022-11-25T03:39:25.143Z,95474
2022-11-25T03:40:33.807Z,95475
2022-11-25T03:41:42.540Z,95472
2022-11-25T03:42:51.191Z,95474
2022-11-25T03:44:00.882Z,95478
2022-11-25T03:45:09.532Z,95481
2022-11-25T03:46:19.286Z,95479
2022-11-25T03:47:28.964Z,95481
2022-11-25T03:48:38.670Z,95479
2022-11-25T03:49:48.356Z,95475
2022-11-25T03:50:57.999Z,95473
2022-11-25T03:52:06.634Z,95473
2022-11-25T03:53:16.307Z,95482
2022-11-25T03:54:24.988Z,95482
2022-11-25T03:55:33.835Z,95485
2022-11-25T03:56:43.546Z,95483
2022-11-25T03:57:52.256Z,95477
2022-11-25T03:59:00.963Z,95479
2022-11-25T04:00:09.641Z,95481
2022-11-25T04:01:18.385Z,95480
2022-11-25T04:02:28.078Z,95476
2022-11-25T04:03:37.647Z,95476
2022-11-25T04:04:46.341Z,95471
2022-11-25T04:05:56.026Z,95476
2022-11-25T04:07:05.726Z,95475
2022-11-25T04:08:15.393Z,95479
2022-11-25T04:09:24.076Z,95486
2022-11-25T04:10:32.782Z,95486
2022-11-25T04:11:42.470Z,95490
2022-11-25T04:12:51.142Z,95486
2022-11-25T04:14:00.916Z,95488
2022-11-25T04:15:10.623Z,95490
2022-11-25T04:16:20.401Z,95489
2022-11-25T04:17:30.007Z,95491
2022-11-25T04:18:38.763Z,95490
2022-11-25T04:19:47.424Z,95482
2022-11-25T04:20:57.139Z,95486
2022-11-25T04:22:04.960Z,95488
2022-11-25T04:23:14.661Z,95493
2022-11-25T04:24:24.297Z,95490
2022-11-25T04:25:31.952Z,95491
2022-11-25T04:26:41.696Z,95491
2022-11-25T04:27:50.414Z,95494
2022-11-25T04:29:00.111Z,95494
2022-11-25T04:30:09.778Z,95499
2022-11-25T04:31:17.557Z,95502
2022-11-25T04:32:26.290Z,95506
2022-11-25T04:33:35.819Z,95504
2022-11-25T04:34:44.507Z,95511
2022-11-25T04:35:54.202Z,95507
2022-11-25T04:37:01.866Z,95509
2022-11-25T04:38:10.523Z,95506
2022-11-25T04:39:19.286Z,95504
2022-11-25T04:40:27.905Z,95503
2022-11-25T04:41:37.642Z,95507
2022-11-25T04:42:46.289Z,95509
2022-11-25T04:43:54.942Z,95513
2022-11-25T04:45:22.360Z,95516
2022-11-25T04:46:15.627Z,95516
2022-11-25T04:47:25.196Z,95521
2022-11-25T04:48:33.864Z,95514
2022-11-25T04:49:43.557Z,95512
2022-11-25T04:50:53.275Z,95515
2022-11-25T04:52:00.935Z,95515
2022-11-25T04:53:09.589Z,95515
2022-11-25T04:54:19.271Z,95511
2022-11-25T04:55:28.993Z,95512
2022-11-25T04:56:37.659Z,95516
2022-11-25T04:57:47.351Z,95512
2022-11-25T04:58:55.997Z,95513
2022-11-25T05:00:05.705Z,95517
2022-11-25T05:01:15.434Z,95517
2022-11-25T05:02:24.154Z,95517
2022-11-25T05:03:33.757Z,95514
2022-11-25T05:04:43.409Z,95518
2022-11-25T05:05:52.098Z,95515
2022-11-25T05:07:01.766Z,95513
2022-11-25T05:08:10.466Z,95513
2022-11-25T05:09:20.220Z,95507
2022-11-25T05:10:27.955Z,95511
2022-11-25T05:11:37.681Z,95515
2022-11-25T05:12:47.330Z,95513
2022-11-25T05:13:56.137Z,95513
2022-11-25T05:15:04.818Z,95509
2022-11-25T05:16:13.573Z,95508
2022-11-25T05:17:22.228Z,95505
2022-11-25T05:18:30.883Z,95502
2022-11-25T05:19:39.575Z,95498
2022-11-25T05:20:48.269Z,95501
2022-11-25T05:21:57.970Z,95503
2022-11-25T05:23:06.617Z,95503
2022-11-25T05:24:15.286Z,95509
2022-11-25T05:25:25.014Z,95511
2022-11-25T05:26:33.714Z,95513
2022-11-25T05:27:43.424Z,95515
2022-11-25T05:28:53.182Z,95521
2022-11-25T05:30:02.940Z,95524
2022-11-25T05:31:12.810Z,95525
2022-11-25T05:32:21.435Z,95525
2022-11-25T05:33:30.090Z,95518
2022-11-25T05:34:39.770Z,95517
2022-11-25T05:35:48.463Z,95517
2022-11-25T05:36:58.236Z,95513
2022-11-25T05:38:06.964Z,95517
2022-11-25T05:39:16.718Z,95513
2022-11-25T05:40:26.453Z,95519
2022-11-25T05:41:34.120Z,95519
2022-11-25T05:42:42.855Z,95519
2022-11-25T05:43:51.684Z,95520
2022-11-25T05:45:01.337Z,95519
2022-11-25T05:46:11.082Z,95514
2022-11-25T05:47:19.706Z,95516
2022-11-25T05:48:28.527Z,95521
2022-11-25T05:49:38.247Z,95523
2022-11-25T05:50:45.893Z,95527
2022-11-25T05:51:53.871Z,95520
2022-11-25T05:53:04.093Z,95522
2022-11-25T05:54:12.944Z,95520
2022-11-25T05:55:22.629Z,95520
2022-11-25T05:56:29.286Z,95516
2022-11-25T05:57:38.970Z,95517
2022-11-25T05:58:48.715Z,95514
2022-11-25T05:59:56.450Z,95512
2022-11-25T06:01:05.105Z,95514
2022-11-25T06:02:13.859Z,95522
2022-11-25T06:03:23.555Z,95525
2022-11-25T06:04:33.242Z,95531
2022-11-25T06:05:42.876Z,95528
2022-11-25T06:06:51.554Z,95531
2022-11-25T06:08:01.241Z,95529
2022-11-25T06:09:08.914Z,95532
2022-11-25T06:10:16.589Z,95529
2022-11-25T06:11:26.276Z,95530
2022-11-25T06:12:35.011Z,95531
2022-11-25T06:13:44.725Z,95530
2022-11-25T06:14:54.417Z,95529
2022-11-25T06:16:07.611Z,95531
2022-11-25T06:17:13.771Z,95530
2022-11-25T06:18:21.443Z,95526
2022-11-25T06:19:29.094Z,95524
2022-11-25T06:20:39.751Z,95524
2022-11-25T06:21:48.404Z,95519
2022-11-25T06:22:58.119Z,95525
2022-11-25T06:24:06.782Z,95524
2022-11-25T06:25:15.457Z,95519
2022-11-25T06:26:25.166Z,95515
2022-11-25T06:27:50.350Z,95521
2022-11-25T06:28:44.545Z,95524
2022-11-25T06:29:54.278Z,95524
2022-11-25T06:31:03.001Z,95524
2022-11-25T06:32:12.794Z,95520
2022-11-25T06:33:21.429Z,95518
2022-11-25T06:34:31.140Z,95517
2022-11-25T06:35:38.801Z,95517
2022-11-25T06:36:47.498Z,95520
2022-11-25T06:37:57.265Z,95521
2022-11-25T06:39:04.951Z,95521
2022-11-25T06:40:14.682Z,95524
2022-11-25T06:41:23.415Z,95523
2022-11-25T06:42:32.208Z,95521
2022-11-25T06:43:41.867Z,95524
2022-11-25T06:44:49.548Z,95523
2022-11-25T06:45:58.270Z,95527
2022-11-25T06:47:07.986Z,95521
2022-11-25T06:48:15.713Z,95519
2022-11-25T06:49:24.362Z,95521
2022-11-25T06:50:34.050Z,95524
2022-11-25T06:51:43.804Z,95523
2022-11-25T06:52:53.513Z,95526
2022-11-25T06:54:01.200Z,95527
2022-11-25T06:55:10.924Z,95529
2022-11-25T06:56:20.653Z,95532
2022-11-25T06:57:28.327Z,95532
2022-11-25T06:58:37.025Z,95530
2022-11-25T06:59:45.713Z,95533
2022-11-25T07:00:55.371Z,95528
2022-11-25T07:02:05.220Z,95528
2022-11-25T07:03:12.910Z,95528
2022-11-25T07:04:22.572Z,95527
2022-11-25T07:05:32.235Z,95530
2022-11-25T07:06:40.895Z,95523
2022-11-25T07:07:49.608Z,95527
2022-11-25T07:08:59.337Z,95529
2022-11-25T07:10:06.993Z,95527
2022-11-25T07:11:16.658Z,95522
2022-11-25T07:12:26.327Z,95522
2022-11-25T07:13:34.001Z,95526
2022-11-25T07:14:43.715Z,95530
2022-11-25T07:15:53.463Z,95529
2022-11-25T07:17:02.945Z,95529
2022-11-25T07:18:12.893Z,95530
2022-11-25T07:19:21.550Z,95529
2022-11-25T07:20:31.260Z,95533
2022-11-25T07:21:40.917Z,95532
2022-11-25T07:22:49.600Z,95529
2022-11-25T07:23:59.298Z,95532
2022-11-25T07:25:07.965Z,95533
2022-11-25T07:26:16.655Z,95533
2022-11-25T07:27:25.308Z,95539
2022-11-25T07:28:33.999Z,95536
2022-11-25T07:29:58.174Z,95540
2022-11-25T07:31:22.596Z,95548
2022-11-25T07:32:10.206Z,95548
2022-11-25T07:33:14.699Z,95549
2022-11-25T07:34:22.387Z,95549
2022-11-25T07:35:31.044Z,95553
2022-11-25T07:36:39.769Z,95554
2022-11-25T07:37:48.406Z,95559
2022-11-25T07:38:58.090Z,95561
2022-11-25T07:40:07.763Z,95560
2022-11-25T07:41:16.454Z,95554
2022-11-25T07:42:26.168Z,95556
2022-11-25T07:43:33.887Z,95548
2022-11-25T07:44:43.593Z,95550
2022-11-25T07:45:52.313Z,95547
2022-11-25T07:47:00.995Z,95553
2022-11-25T07:48:10.644Z,95557
2022-11-25T07:49:19.344Z,95553
2022-11-25T07:50:28.087Z,95554
2022-11-25T07:51:37.806Z,95556
2022-11-25T07:52:45.496Z,95558
2022-11-25T07:53:54.182Z,95555
2022-11-25T07:55:04.070Z,95554
2022-11-25T07:56:13.796Z,95555
2022-11-25T07:57:23.504Z,95553
2022-11-25T07:58:32.244Z,95551
2022-11-25T07:59:41.889Z,95555
2022-11-25T08:00:51.621Z,95556
2022-11-25T08:02:00.365Z,95554
2022-11-25T08:03:10.034Z,95552
2022-11-25T08:04:20.613Z,95554
2022-11-25T08:05:29.358Z,95556
2022-11-25T08:06:39.020Z,95561
2022-11-25T08:07:47.790Z,95562
2022-11-25T08:08:57.390Z,95569
2022-11-25T08:10:07.147Z,95566
2022-11-25T08:11:14.836Z,95569
2022-11-25T08:12:24.560Z,95578
2022-11-25T08:13:34.269Z,95573
2022-11-25T08:14:42.932Z,95569
2022-11-25T08:15:52.681Z,95570
2022-11-25T08:17:02.349Z,95571
2022-11-25T08:18:12.085Z,95566
2022-11-25T08:19:23.115Z,95572
2022-11-25T08:20:32.473Z,95562
2022-11-25T08:21:42.250Z,95562
2022-11-25T08:22:50.940Z,95567
2022-11-25T08:24:00.615Z,95565
2022-11-25T08:25:10.303Z,95566
2022-11-25T08:26:18.990Z,95566
2022-11-25T08:27:27.680Z,95569
2022-11-25T08:28:37.359Z,95562
2022-11-25T08:29:46.044Z,95560
2022-11-25T08:30:55.757Z,95561
2022-11-25T08:32:06.248Z,95564
2022-11-25T08:33:13.029Z,95567
2022-11-25T08:34:21.692Z,95564
2022-11-25T08:35:30.498Z,95563
2022-11-25T08:36:43.775Z,95566
2022-11-25T08:37:50.799Z,95567
2022-11-25T08:39:00.577Z,95567
2022-11-25T08:40:11.285Z,95568
2022-11-25T08:41:20.982Z,95569
2022-11-25T08:42:29.662Z,95572
2022-11-25T08:43:38.321Z,95569
2022-11-25T08:44:47.987Z,95563
2022-11-25T08:45:57.715Z,95564
2022-11-25T08:47:06.406Z,95565
2022-11-25T08:48:16.063Z,95566
2022-11-25T08:49:25.817Z,95570
2022-11-25T08:50:35.506Z,95572
2022-11-25T08:51:44.217Z,95579
2022-11-25T08:52:53.925Z,95580
2022-11-25T08:54:02.620Z,95583
2022-11-25T08:55:12.372Z,95586
2022-11-25T08:56:25.637Z,95593
2022-11-25T08:57:29.665Z,95592
2022-11-25T08:58:39.491Z,95594
2022-11-25T08:59:48.182Z,95592
2022-11-25T09:00:56.902Z,95597
2022-11-25T09:02:05.658Z,95596
2022-11-25T09:03:14.338Z,95596
2022-11-25T09:04:24.029Z,95601
2022-11-25T09:05:33.818Z,95600
2022-11-25T09:06:42.545Z,95603
2022-11-25T09:07:52.350Z,95603
2022-11-25T09:08:59.956Z,95603
2022-11-25T09:10:08.674Z,95605
2022-11-25T09:11:17.498Z,95608
2022-11-25T09:12:27.035Z,95611
2022-11-25T09:13:36.763Z,95616
2022-11-25T09:14:45.455Z,95621
2022-11-25T09:15:54.271Z,95622
2022-11-25T09:17:03.933Z,95623
2022-11-25T09:18:12.648Z,95621
2022-11-25T09:19:21.414Z,95627
2022-11-25T09:20:30.138Z,95632
2022-11-25T09:21:39.849Z,95635
2022-11-25T09:22:49.555Z,95641
2022-11-25T09:23:57.247Z,95641
2022-11-25T09:25:05.960Z,95636
2022-11-25T09:26:15.678Z,95641
2022-11-25T09:27:23.406Z,95642
2022-11-25T09:28:33.108Z,95641
2022-11-25T09:29:41.882Z,95638
2022-11-25T09:30:51.614Z,95637
2022-11-25T09:32:01.379Z,95639
2022-11-25T09:33:11.116Z,95643
2022-11-25T09:34:20.790Z,95648
2022-11-25T09:35:30.469Z,95652
2022-11-25T09:36:38.239Z,95651
2022-11-25T09:37:46.920Z,95652
2022-11-25T09:38:56.631Z,95649
2022-11-25T09:40:06.319Z,95650
2022-11-25T09:41:16.032Z,95648
2022-11-25T09:42:24.732Z,95645
2022-11-25T09:43:33.433Z,95643
2022-11-25T09:44:43.122Z,95646
2022-11-25T09:45:52.837Z,95642
2022-11-25T09:47:01.553Z,95648
2022-11-25T09:48:11.213Z,95646
2022-11-25T09:49:19.883Z,95641
2022-11-25T09:50:29.611Z,95637
2022-11-25T09:51:38.290Z,95636
2022-11-25T09:52:47.045Z,95635
2022-11-25T09:53:56.753Z,95633
2022-11-25T09:55:05.443Z,95633
2022-11-25T09:56:14.159Z,95635
2022-11-25T09:57:22.844Z,95638
2022-11-25T09:58:31.523Z,95641
2022-11-25T09:59:41.243Z,95641
2022-11-25T10:00:49.895Z,95640
2022-11-25T10:01:58.673Z,95642
2022-11-25T10:03:08.369Z,95640
2022-11-25T10:04:17.030Z,95632
2022-11-25T10:05:26.775Z,95644
2022-11-25T10:06:36.517Z,95638
2022-11-25T10:07:46.427Z,95641
2022-11-25T10:08:56.148Z,95645
2022-11-25T10:10:03.866Z,95643
2022-11-25T10:11:12.572Z,95649
2022-11-25T10:12:22.283Z,95646
2022-11-25T10:13:30.995Z,95649
2022-11-25T10:14:39.730Z,95646
2022-11-25T10:15:49.528Z,95641
2022-11-25T10:16:58.107Z,95647
2022-11-25T10:18:07.830Z,95646
2022-11-25T10:19:16.554Z,95645
2022-11-25T10:20:25.238Z,95646
2022-11-25T10:21:34.935Z,95647
2022-11-25T10:22:42.709Z,95644
2022-11-25T10:23:51.423Z,95643
2022-11-25T10:25:00.168Z,95646
2022-11-25T10:26:09.848Z,95643
2022-11-25T10:27:18.575Z,95652
2022-11-25T10:28:28.276Z,95646
2022-11-25T10:29:37.961Z,95653
2022-11-25T10:30:46.670Z,95654
2022-11-25T10:31:55.382Z,95642
2022-11-25T10:33:05.061Z,95646
2022-11-25T10:34:13.773Z,95647
2022-11-25T10:35:23.513Z,95652
2022-11-25T10:36:33.246Z,95649
2022-11-25T10:37:42.991Z,95657
2022-11-25T10:38:52.624Z,95656
2022-11-25T10:40:01.296Z,95660
2022-11-25T10:41:09.988Z,95659
2022-11-25T10:42:19.705Z,95662
2022-11-25T10:43:31.473Z,95659
2022-11-25T10:44:36.262Z,95659
2022-11-25T10:45:45.721Z,95663
2022-11-25T10:47:13.277Z,95659
2022-11-25T10:48:06.145Z,95658
2022-11-25T10:49:14.844Z,95657
2022-11-25T10:50:23.552Z,95656
2022-11-25T10:51:33.255Z,95653
2022-11-25T10:52:41.966Z,95653
2022-11-25T10:53:49.674Z,95651
2022-11-25T10:54:58.381Z,95653
2022-11-25T10:56:07.062Z,95651
2022-11-25T10:57:16.745Z,95651
2022-11-25T10:58:25.438Z,95649
2022-11-25T10:59:34.113Z,95653
2022-11-25T11:00:43.828Z,95653
2022-11-25T11:01:52.656Z,95650
2022-11-25T11:03:01.363Z,95651
2022-11-25T11:04:11.169Z,95644
2022-11-25T11:05:20.963Z,95646
2022-11-25T11:06:30.628Z,95646
2022-11-25T11:07:39.334Z,95643
2022-11-25T11:08:48.985Z,95640
2022-11-25T11:09:58.732Z,95640
2022-11-25T11:11:08.421Z,95646
2022-11-25T11:12:18.134Z,95642
2022-11-25T11:13:26.795Z,95637
2022-11-25T11:14:35.836Z,95637
2022-11-25T11:15:45.258Z,95635
2022-11-25T11:16:53.906Z,95639
2022-11-25T11:18:02.628Z,95637
2022-11-25T11:19:12.311Z,95639
2022-11-25T11:20:21.034Z,95637
2022-11-25T11:21:30.740Z,95642
2022-11-25T11:22:39.475Z,95647
2022-11-25T11:23:48.149Z,95649
2022-11-25T11:24:57.836Z,95642
2022-11-25T11:26:05.531Z,95646
2022-11-25T11:27:15.188Z,95652
2022-11-25T11:28:24.896Z,95645
2022-11-25T11:29:33.599Z,95644
2022-11-25T11:30:42.270Z,95646
2022-11-25T11:31:51.025Z,95639
2022-11-25T11:33:00.649Z,95638
2022-11-25T11:34:10.351Z,95638
2022-11-25T11:35:19.051Z,95639
2022-11-25T11:36:27.774Z,95640
2022-11-25T11:37:37.406Z,95641
2022-11-25T11:38:47.157Z,95638
2022-11-25T11:39:56.008Z,95636
2022-11-25T11:41:04.700Z,95638
2022-11-25T11:42:13.374Z,95632
2022-11-25T11:43:23.144Z,95637
2022-11-25T11:44:30.831Z,95634
2022-11-25T11:45:39.541Z,95632
2022-11-25T11:46:49.311Z,95636
2022-11-25T11:47:57.908Z,95632
2022-11-25T11:49:06.625Z,95636
2022-11-25T11:50:15.296Z,95639
2022-11-25T11:51:24.010Z,95640
2022-11-25T11:52:33.742Z,95641
2022-11-25T11:53:42.463Z,95636
2022-11-25T11:54:52.146Z,95637
2022-11-25T11:56:27.277Z,95637
2022-11-25T11:57:11.570Z,95636
2022-11-25T11:58:20.245Z,95633
2022-11-25T11:59:28.921Z,95632
2022-11-25T12:00:37.599Z,95630
2022-11-25T12:01:47.344Z,95632
2022-11-25T12:02:56.020Z,95626
2022-11-25T12:04:04.626Z,95630
2022-11-25T12:05:14.286Z,95627
2022-11-25T12:06:22.948Z,95634
2022-11-25T12:07:31.692Z,95635
2022-11-25T12:08:40.462Z,95628
2022-11-25T12:09:49.112Z,95623
2022-11-25T12:10:58.808Z,95626
2022-11-25T12:12:07.470Z,95622
2022-11-25T12:13:16.221Z,95625
2022-11-25T12:14:25.905Z,95623
2022-11-25T12:15:33.579Z,95619
2022-11-25T12:16:41.329Z,95622
2022-11-25T12:17:50.975Z,95625
2022-11-25T12:19:00.623Z,95626
2022-11-25T12:20:10.356Z,95622
2022-11-25T12:21:19.036Z,95625
2022-11-25T12:22:28.700Z,95624
2022-11-25T12:23:38.403Z,95621
2022-11-25T12:24:48.193Z,95616
2022-11-25T12:25:57.881Z,95619
2022-11-25T12:27:07.800Z,95615
2022-11-25T12:28:17.592Z,95619
2022-11-25T12:29:27.255Z,95615
2022-11-25T12:30:37.003Z,95619
2022-11-25T12:31:46.865Z,95615
2022-11-25T12:32:54.480Z,95619
2022-11-25T12:34:03.148Z,95619
2022-11-25T12:35:12.833Z,95620
2022-11-25T12:36:21.507Z,95620
2022-11-25T12:37:30.226Z,95621
2022-11-25T12:38:38.880Z,95621
2022-11-25T12:39:48.569Z,95620
2022-11-25T12:40:58.240Z,95620
2022-11-25T12:42:06.891Z,95626
2022-11-25T12:43:15.600Z,95617
2022-11-25T12:44:25.341Z,95621
2022-11-25T12:45:33.007Z,95620
2022-11-25T12:46:41.652Z,95624
2022-11-25T12:47:50.326Z,95620
2022-11-25T12:49:00.028Z,95624
2022-11-25T12:50:09.682Z,95619
2022-11-25T12:51:19.343Z,95619
2022-11-25T12:52:28.001Z,95618
2022-11-25T12:53:36.694Z,95626
2022-11-25T12:54:45.371Z,95623
2022-11-25T12:55:55.060Z,95631
2022-11-25T12:57:03.745Z,95626
2022-11-25T12:58:12.525Z,95626
2022-11-25T12:59:22.142Z,95627
2022-11-25T13:00:45.305Z,95630
2022-11-25T13:01:39.624Z,95626
2022-11-25T13:02:49.200Z,95626
2022-11-25T13:03:56.842Z,95627
2022-11-25T13:05:25.509Z,95628
2022-11-25T13:06:17.212Z,95627
2022-11-25T13:07:27.025Z,95624
2022-11-25T13:08:36.546Z,95621
2022-11-25T13:09:44.244Z,95620
2022-11-25T13:10:53.927Z,95627
2022-11-25T13:12:04.114Z,95627
2022-11-25T13:13:17.814Z,95628
2022-11-25T13:14:23.374Z,95624
2022-11-25T13:15:32.418Z,95626
2022-11-25T13:16:41.714Z,95629
2022-11-25T13:17:51.198Z,95628
2022-11-25T13:18:59.826Z,95629
2022-11-25T13:20:07.499Z,95633
2022-11-25T13:21:17.156Z,95631
2022-11-25T13:22:24.816Z,95626
2022-11-25T13:23:34.530Z,95629
2022-11-25T13:24:44.200Z,95632
2022-11-25T13:25:53.870Z,95631
2022-11-25T13:27:03.527Z,95632
2022-11-25T13:28:12.212Z,95633
2022-11-25T13:29:20.940Z,95634
2022-11-25T13:30:30.576Z,95632
2022-11-25T13:31:40.316Z,95633
2022-11-25T13:32:48.955Z,95633
2022-11-25T13:33:58.599Z,95631
2022-11-25T13:35:07.273Z,95633
2022-11-25T13:36:16.952Z,95633
2022-11-25T13:37:26.648Z,95634
2022-11-25T13:38:37.378Z,95635
2022-11-25T13:39:47.051Z,95632
2022-11-25T13:40:55.811Z,95629
2022-11-25T13:42:04.500Z,95631
2022-11-25T13:43:18.758Z,95633
2022-11-25T13:44:22.823Z,95635
2022-11-25T13:45:32.579Z,95635
2022-11-25T13:46:41.242Z,95636
2022-11-25T13:47:50.989Z,95642
2022-11-25T13:49:00.651Z,95643
2022-11-25T13:50:11.997Z,95640
2022-11-25T13:51:19.027Z,95645
2022-11-25T13:52:28.802Z,95641
2022-11-25T13:53:38.483Z,95644
2022-11-25T13:54:48.149Z,95643
2022-11-25T13:55:57.849Z,95649
2022-11-25T13:57:06.487Z,95648
2022-11-25T13:58:16.239Z,95647
2022-11-25T13:59:24.910Z,95651
2022-11-25T14:00:34.895Z,95650
2022-11-25T14:01:45.601Z,95646
2022-11-25T14:02:54.285Z,95647
2022-11-25T14:04:04.044Z,95652
2022-11-25T14:05:12.731Z,95648
2022-11-25T14:06:21.391Z,95654
2022-11-25T14:07:31.209Z,95654
2022-11-25T14:08:38.764Z,95653
2022-11-25T14:09:47.469Z,95654
2022-11-25T14:10:56.149Z,95658
2022-11-25T14:12:05.804Z,95659
2022-11-25T14:13:15.488Z,95658
2022-11-25T14:14:23.149Z,95657
2022-11-25T14:15:32.009Z,95662
2022-11-25T14:16:41.716Z,95661
2022-11-25T14:17:49.342Z,95658
2022-11-25T14:20:09.701Z,95665
2022-11-25T14:21:19.416Z,95662
2022-11-25T14:22:29.163Z,95666
2022-11-25T14:23:37.765Z,95676
2022-11-25T14:24:47.438Z,95670
2022-11-25T14:25:55.150Z,95676
2022-11-25T14:27:04.814Z,95679
2022-11-25T14:28:14.489Z,95675
2022-11-25T14:29:22.188Z,95674
2022-11-25T14:30:30.854Z,95680
2022-11-25T14:31:40.639Z,95674
2022-11-25T14:32:49.321Z,95680
2022-11-25T14:33:59.016Z,95678
2022-11-25T14:35:07.721Z,95684
2022-11-25T14:36:17.427Z,95681
2022-11-25T14:37:27.177Z,95684
2022-11-25T14:38:34.861Z,95686
2022-11-25T14:39:43.571Z,95690
2022-11-25T14:40:54.904Z,95685
2022-11-25T14:42:01.924Z,95693
2022-11-25T14:43:11.605Z,95699
2022-11-25T14:44:21.340Z,95702
2022-11-25T14:45:31.071Z,95705
2022-11-25T14:46:40.731Z,95711
2022-11-25T14:47:48.435Z,95711
2022-11-25T14:48:57.114Z,95716
2022-11-25T14:50:37.270Z,95722
2022-11-25T14:51:18.490Z,95729